createdAt,value
2022-11-16T00:01:34.677Z,168.23
2022-11-16T00:04:03.484Z,172.52
2022-11-16T00:06:30.479Z,177.05
2022-11-16T00:09:24.799Z,181.30
2022-11-16T00:12:02.352Z,185.18
2022-11-16T00:14:32.813Z,201.05
2022-11-16T00:17:01.839Z,209.55
2022-11-16T00:19:29.256Z,213.70
2022-11-16T00:21:56.278Z,208.00
2022-11-16T00:24:23.849Z,203.88
2022-11-16T00:27:09.462Z,205.60
2022-11-16T00:29:36.948Z,216.60
2022-11-16T00:32:04.513Z,207.00
2022-11-16T00:34:31.684Z,208.93
2022-11-16T00:36:58.711Z,199.48
2022-11-16T00:39:25.596Z,190.07
2022-11-16T00:41:52.467Z,216.20
2022-11-16T00:44:19.449Z,197.80
2022-11-16T00:46:46.633Z,213.52
2022-11-16T00:49:13.592Z,211.55
2022-11-16T00:51:40.633Z,203.15
2022-11-16T00:54:09.463Z,197.35
2022-11-16T00:56:38.056Z,194.93
2022-11-16T00:59:08.165Z,194.20
2022-11-16T01:01:35.163Z,195.50
2022-11-16T01:04:02.420Z,201.75
2022-11-16T01:06:29.384Z,187.98
2022-11-16T01:08:56.307Z,188.25
2022-11-16T01:11:42.524Z,207.73
2022-11-16T01:14:10.419Z,190.55
2022-11-16T01:16:37.651Z,199.88
2022-11-16T01:19:05.288Z,182.73
2022-11-16T01:21:33.209Z,174.25
2022-11-16T01:24:00.278Z,190.40
2022-11-16T01:26:27.446Z,184.68
2022-11-16T01:28:54.304Z,182.63
2022-11-16T01:31:21.669Z,174.07
2022-11-16T01:33:51.379Z,165.15
2022-11-16T01:36:24.785Z,171.15
2022-11-16T01:38:53.353Z,164.57
2022-11-16T01:41:25.910Z,154.85
2022-11-16T01:44:25.147Z,164.75
2022-11-16T01:46:55.442Z,160.50
2022-11-16T01:49:25.549Z,158.60
2022-11-16T01:52:04.797Z,158.20
2022-11-16T01:54:38.797Z,153.50
2022-11-16T01:57:11.287Z,144.05
2022-11-16T01:59:53.578Z,146.95
2022-11-16T02:02:22.813Z,147.43
2022-11-16T02:04:52.095Z,144.73
2022-11-16T02:08:24.533Z,146.98
2022-11-16T02:11:16.497Z,133.15
2022-11-16T02:13:55.833Z,136.15
2022-11-16T02:16:28.860Z,140.65
2022-11-16T02:19:12.024Z,136.80
2022-11-16T02:21:57.761Z,137.05
2022-11-16T02:24:26.417Z,136.50
2022-11-16T02:26:56.332Z,132.90
2022-11-16T02:29:40.107Z,139.68
2022-11-16T02:32:15.626Z,133.45
2022-11-16T02:34:57.636Z,133.48
2022-11-16T02:37:28.337Z,136.15
2022-11-16T02:40:01.248Z,144.35
2022-11-16T02:42:51.312Z,147.20
2022-11-16T02:45:26.246Z,127.47
2022-11-16T02:47:56.988Z,139.45
2022-11-16T02:50:26.359Z,135.02
2022-11-16T02:52:55.469Z,136.38
2022-11-16T02:55:24.722Z,133.25
2022-11-16T02:58:03.955Z,123.00
2022-11-16T03:01:04.691Z,134.70
2022-11-16T03:03:35.736Z,121.45
2022-11-16T03:06:11.672Z,135.07
2022-11-16T03:08:45.010Z,127.65
2022-11-16T03:11:31.781Z,125.38
2022-11-16T03:14:05.787Z,122.63
2022-11-16T03:16:43.617Z,115.00
2022-11-16T03:19:14.555Z,120.88
2022-11-16T03:21:47.880Z,113.95
2022-11-16T03:24:15.668Z,120.47
2022-11-16T03:27:06.613Z,124.90
2022-11-16T03:30:14.953Z,119.10
2022-11-16T03:32:51.360Z,128.18
2022-11-16T03:35:26.804Z,119.93
2022-11-16T03:37:57.682Z,138.57
2022-11-16T03:40:30.270Z,117.68
2022-11-16T03:43:00.850Z,137.32
2022-11-16T03:45:29.134Z,120.50
2022-11-16T03:47:56.173Z,146.10
2022-11-16T03:50:23.527Z,129.35
2022-11-16T03:52:51.173Z,126.47
2022-11-16T03:55:19.263Z,124.93
2022-11-16T03:57:46.559Z,118.97
2022-11-16T04:00:14.736Z,137.85
2022-11-16T04:02:43.061Z,124.40
2022-11-16T04:05:34.369Z,116.53
2022-11-16T04:08:20.421Z,135.52
2022-11-16T04:11:06.009Z,118.20
2022-11-16T04:13:53.082Z,112.13
2022-11-16T04:16:39.247Z,114.57
2022-11-16T04:19:28.026Z,112.72
2022-11-16T04:22:38.582Z,115.50
2022-11-16T04:25:16.097Z,114.35
2022-11-16T04:28:03.314Z,119.90
2022-11-16T04:30:50.355Z,120.18
2022-11-16T04:33:37.046Z,130.32
2022-11-16T04:36:23.002Z,106.57
2022-11-16T04:38:50.174Z,116.57
2022-11-16T04:41:37.975Z,122.57
2022-11-16T04:44:05.216Z,111.30
2022-11-16T04:46:52.680Z,113.45
2022-11-16T04:49:22.687Z,113.20
2022-11-16T04:51:54.045Z,114.03
2022-11-16T04:54:23.411Z,111.22
2022-11-16T04:56:50.361Z,109.38
2022-11-16T04:59:25.741Z,111.30
2022-11-16T05:02:09.019Z,117.32
2022-11-16T05:04:52.734Z,115.82
2022-11-16T05:07:21.398Z,109.40
2022-11-16T05:09:50.170Z,106.68
2022-11-16T05:12:20.270Z,113.53
2022-11-16T05:14:50.943Z,109.68
2022-11-16T05:17:20.108Z,110.28
2022-11-16T05:20:06.926Z,116.25
2022-11-16T05:22:40.466Z,111.82
2022-11-16T05:25:11.932Z,105.18
2022-11-16T05:27:39.528Z,106.05
2022-11-16T05:30:07.734Z,110.10
2022-11-16T05:32:34.895Z,104.53
2022-11-16T05:35:02.013Z,104.18
2022-11-16T05:37:30.524Z,103.63
2022-11-16T05:39:58.096Z,108.22
2022-11-16T05:42:35.496Z,109.47
2022-11-16T05:45:03.485Z,103.60
2022-11-16T05:47:30.496Z,104.55
2022-11-16T05:49:58.789Z,97.25
2022-11-16T05:52:29.302Z,106.70
2022-11-16T05:55:00.837Z,102.55
2022-11-16T05:57:30.529Z,107.05
2022-11-16T05:59:57.356Z,102.00
2022-11-16T06:02:24.420Z,95.97
2022-11-16T06:04:51.388Z,105.80
2022-11-16T06:07:18.573Z,98.18
2022-11-16T06:09:45.552Z,99.50
2022-11-16T06:12:18.103Z,101.45
2022-11-16T06:14:45.075Z,98.63
2022-11-16T06:17:14.573Z,105.13
2022-11-16T06:19:42.938Z,104.40
2022-11-16T06:22:10.411Z,105.97
2022-11-16T06:24:37.436Z,107.70
2022-11-16T06:27:04.729Z,108.30
2022-11-16T06:29:33.965Z,107.80
2022-11-16T06:32:00.791Z,106.43
2022-11-16T06:34:27.945Z,102.15
2022-11-16T06:36:55.882Z,103.90
2022-11-16T06:39:23.589Z,106.40
2022-11-16T06:41:51.890Z,103.88
2022-11-16T06:44:18.732Z,100.93
2022-11-16T06:46:54.959Z,110.13
2022-11-16T06:49:25.636Z,108.28
2022-11-16T06:51:56.124Z,101.57
2022-11-16T06:54:35.633Z,98.50
2022-11-16T06:57:03.067Z,100.65
2022-11-16T06:59:29.926Z,106.60
2022-11-16T07:01:57.106Z,108.65
2022-11-16T07:04:24.918Z,111.78
2022-11-16T07:06:56.054Z,111.88
2022-11-16T07:09:23.337Z,117.60
2022-11-16T07:11:50.439Z,118.25
2022-11-16T07:14:19.163Z,99.68
2022-11-16T07:16:46.111Z,108.63
2022-11-16T07:19:13.215Z,106.30
2022-11-16T07:21:41.188Z,109.68
2022-11-16T07:24:13.766Z,118.40
2022-11-16T07:26:40.639Z,101.47
2022-11-16T07:29:13.866Z,107.65
2022-11-16T07:31:46.321Z,107.57
2022-11-16T07:34:45.176Z,110.97
2022-11-16T07:37:15.983Z,102.70
2022-11-16T07:39:44.343Z,110.35
2022-11-16T07:42:12.319Z,111.03
2022-11-16T07:44:56.735Z,102.35
2022-11-16T07:47:23.788Z,108.88
2022-11-16T07:49:50.959Z,111.28
2022-11-16T07:52:24.650Z,115.50
2022-11-16T07:54:56.927Z,108.43
2022-11-16T07:59:55.231Z,107.68
2022-11-16T08:02:22.349Z,107.78
2022-11-16T08:04:51.261Z,118.25
2022-11-16T08:07:23.032Z,124.90
2022-11-16T08:09:54.147Z,116.78
2022-11-16T08:12:22.452Z,121.10
2022-11-16T08:14:49.324Z,119.80
2022-11-16T08:17:16.403Z,117.60
2022-11-16T08:19:44.125Z,110.93
2022-11-16T08:22:14.333Z,117.68
2022-11-16T08:24:42.238Z,118.20
2022-11-16T08:27:09.486Z,114.80
2022-11-16T08:29:36.701Z,108.75
2022-11-16T08:34:34.895Z,104.05
2022-11-16T08:37:03.355Z,108.65
2022-11-16T08:39:42.900Z,104.97
2022-11-16T08:42:10.266Z,113.60
2022-11-16T08:44:39.132Z,105.90
2022-11-16T08:47:11.106Z,102.05
2022-11-16T08:49:49.262Z,108.32
2022-11-16T08:52:18.347Z,99.03
2022-11-16T08:54:45.342Z,105.47
2022-11-16T08:57:12.248Z,103.68
2022-11-16T08:59:41.473Z,100.03
2022-11-16T09:02:12.957Z,94.82
2022-11-16T09:04:40.050Z,101.38
2022-11-16T09:07:06.883Z,100.03
2022-11-16T09:09:34.025Z,95.07
2022-11-16T09:12:00.819Z,105.15
2022-11-16T09:14:38.252Z,90.38
2022-11-16T09:17:05.483Z,89.28
2022-11-16T09:19:32.436Z,84.90
2022-11-16T09:21:59.407Z,76.53
2022-11-16T09:24:26.317Z,77.43
2022-11-16T09:26:53.211Z,73.05
2022-11-16T09:29:20.005Z,77.63
2022-11-16T09:31:47.141Z,80.65
2022-11-16T09:34:14.139Z,75.13
2022-11-16T09:36:41.046Z,80.50
2022-11-16T09:41:52.473Z,74.55
2022-11-16T09:44:25.302Z,124.95
2022-11-16T09:46:58.936Z,80.28
2022-11-16T09:49:31.167Z,78.25
2022-11-16T09:52:02.650Z,80.75
2022-11-16T09:54:36.387Z,78.32
2022-11-16T09:57:12.190Z,82.30
2022-11-16T09:59:53.960Z,84.53
2022-11-16T10:02:38.890Z,79.65
2022-11-16T10:05:18.588Z,80.97
2022-11-16T10:10:40.166Z,82.55
2022-11-16T10:13:16.643Z,81.88
2022-11-16T10:16:02.348Z,83.82
2022-11-16T10:18:53.955Z,86.65
2022-11-16T10:21:42.299Z,79.05
2022-11-16T10:24:26.206Z,87.70
2022-11-16T10:27:22.298Z,82.88
2022-11-16T10:30:01.300Z,84.85
2022-11-16T10:32:33.161Z,77.25
2022-11-16T10:35:03.273Z,74.72
2022-11-16T10:37:36.736Z,76.22
2022-11-16T10:40:24.679Z,74.53
2022-11-16T10:43:12.646Z,72.68
2022-11-16T10:45:43.559Z,80.07
2022-11-16T10:48:31.512Z,74.93
2022-11-16T10:50:58.675Z,75.40
2022-11-16T10:53:28.387Z,71.80
2022-11-16T10:56:13.766Z,74.65
2022-11-16T10:58:52.943Z,67.68
2022-11-16T11:01:50.907Z,67.82
2022-11-16T11:04:31.668Z,65.78
2022-11-16T11:07:19.582Z,65.68
2022-11-16T11:09:52.975Z,67.30
2022-11-16T11:12:38.070Z,63.70
2022-11-16T11:15:11.187Z,69.75
2022-11-16T11:17:39.447Z,69.43
2022-11-16T11:20:08.306Z,65.43
2022-11-16T11:22:58.606Z,66.00
2022-11-16T11:25:32.397Z,66.25
2022-11-16T11:28:05.485Z,76.32
2022-11-16T11:30:33.826Z,70.13
2022-11-16T11:33:01.711Z,74.15
2022-11-16T11:35:31.846Z,68.45
2022-11-16T11:38:07.755Z,68.47
2022-11-16T11:43:25.176Z,66.85
2022-11-16T11:46:04.382Z,63.15
2022-11-16T11:49:06.503Z,69.40
2022-11-16T11:51:40.306Z,60.50
2022-11-16T11:54:14.703Z,62.05
2022-11-16T11:56:41.727Z,58.40
2022-11-16T11:59:18.990Z,60.72
2022-11-16T12:01:58.943Z,62.95
2022-11-16T12:05:03.651Z,66.13
2022-11-16T12:07:53.769Z,61.08
2022-11-16T12:10:26.919Z,62.30
2022-11-16T12:13:27.930Z,63.75
2022-11-16T12:16:39.615Z,61.63
2022-11-16T12:19:32.494Z,57.97
2022-11-16T12:22:21.724Z,63.45
2022-11-16T12:25:07.264Z,65.75
2022-11-16T12:28:09.113Z,53.67
2022-11-16T12:31:02.081Z,58.22
2022-11-16T12:33:37.971Z,57.65
2022-11-16T12:36:24.757Z,67.15
2022-11-16T12:39:22.569Z,58.55
2022-11-16T12:41:49.330Z,55.70
2022-11-16T12:44:27.442Z,56.00
2022-11-16T12:49:49.700Z,53.83
2022-11-16T12:52:44.135Z,55.53
2022-11-16T12:55:36.897Z,57.78
2022-11-16T12:58:45.038Z,64.97
2022-11-16T13:01:20.632Z,56.00
2022-11-16T13:03:53.325Z,56.72
2022-11-16T13:06:26.577Z,58.63
2022-11-16T13:09:14.434Z,57.15
2022-11-16T13:11:49.654Z,55.35
2022-11-16T13:14:24.874Z,53.70
2022-11-16T13:16:53.773Z,51.95
2022-11-16T13:19:21.226Z,59.03
2022-11-16T13:21:56.263Z,52.75
2022-11-16T13:24:29.769Z,52.00
2022-11-16T13:27:06.586Z,55.28
2022-11-16T13:30:01.526Z,50.15
2022-11-16T13:32:32.707Z,51.92
2022-11-16T13:35:03.414Z,50.35
2022-11-16T13:37:36.682Z,50.83
2022-11-16T13:40:04.584Z,52.10
2022-11-16T13:42:34.758Z,49.95
2022-11-16T13:45:19.221Z,51.78
2022-11-16T13:47:54.659Z,47.35
2022-11-16T13:50:37.985Z,55.10
2022-11-16T13:56:02.005Z,47.70
2022-11-16T13:58:31.569Z,48.70
2022-11-16T14:03:43.174Z,53.28
2022-11-16T14:06:13.167Z,56.05
2022-11-16T14:08:40.102Z,45.72
2022-11-16T14:11:28.782Z,51.67
2022-11-16T14:13:55.929Z,48.85
2022-11-16T14:16:22.794Z,50.22
2022-11-16T14:18:52.185Z,54.60
2022-11-16T14:24:11.870Z,49.90
2022-11-16T14:26:51.517Z,54.80
2022-11-16T14:29:46.855Z,49.47
2022-11-16T14:32:41.294Z,49.00
2022-11-16T14:35:22.783Z,51.33
2022-11-16T14:37:58.510Z,52.40
2022-11-16T14:40:25.863Z,49.78
2022-11-16T14:43:16.352Z,53.85
2022-11-16T14:45:49.093Z,49.15
2022-11-16T14:48:18.786Z,52.72
2022-11-16T14:50:59.975Z,50.53
2022-11-16T14:53:29.029Z,52.55
2022-11-16T14:56:07.387Z,55.53
2022-11-16T14:58:35.927Z,51.25
2022-11-16T15:01:06.151Z,55.27
2022-11-16T15:03:39.055Z,53.58
2022-11-16T15:06:07.935Z,51.58
2022-11-16T15:08:45.366Z,52.53
2022-11-16T15:11:24.737Z,52.75
2022-11-16T15:13:51.689Z,54.28
2022-11-16T15:16:20.378Z,55.08
2022-11-16T15:19:01.972Z,56.22
2022-11-16T15:21:29.317Z,50.47
2022-11-16T15:26:43.623Z,58.33
2022-11-16T15:29:22.090Z,53.20
2022-11-16T15:31:49.242Z,52.37
2022-11-16T15:34:18.626Z,59.72
2022-11-16T15:39:19.693Z,57.13
2022-11-16T15:41:47.246Z,56.90
2022-11-16T15:44:17.840Z,55.13
2022-11-16T15:46:51.735Z,59.03
2022-11-16T15:49:30.266Z,59.20
2022-11-16T15:51:59.176Z,61.07
2022-11-16T15:54:30.435Z,61.17
2022-11-16T15:57:08.267Z,52.85
2022-11-16T15:59:37.036Z,58.28
2022-11-16T16:02:04.447Z,57.58
2022-11-16T16:04:31.467Z,77.18
2022-11-16T16:07:00.794Z,86.85
2022-11-16T16:09:34.291Z,70.13
2022-11-16T16:12:16.711Z,71.35
2022-11-16T16:14:44.805Z,66.72
2022-11-16T16:17:21.313Z,64.68
2022-11-16T16:19:55.894Z,80.22
2022-11-16T16:22:35.328Z,68.50
2022-11-16T16:27:37.335Z,65.80
2022-11-16T16:30:06.048Z,81.63
2022-11-16T16:32:35.642Z,71.88
2022-11-16T16:35:08.989Z,81.68
2022-11-16T16:37:36.788Z,75.88
2022-11-16T16:40:04.887Z,67.63
2022-11-16T16:42:32.068Z,68.78
2022-11-16T16:45:00.288Z,70.07
2022-11-16T16:47:27.458Z,71.53
2022-11-16T16:49:54.634Z,76.35
2022-11-16T16:52:21.741Z,82.55
2022-11-16T16:54:48.592Z,85.47
2022-11-16T16:57:17.595Z,76.28
2022-11-16T16:59:48.416Z,74.65
2022-11-16T17:02:16.958Z,83.25
2022-11-16T17:04:46.716Z,70.95
2022-11-16T17:07:15.461Z,79.22
2022-11-16T17:09:42.869Z,81.30
2022-11-16T17:12:11.090Z,83.78
2022-11-16T17:14:37.910Z,75.60
2022-11-16T17:17:05.378Z,90.53
2022-11-16T17:19:32.573Z,74.88
2022-11-16T17:22:00.035Z,78.72
2022-11-16T17:24:26.981Z,72.97
2022-11-16T17:26:53.886Z,79.78
2022-11-16T17:29:20.807Z,78.60
2022-11-16T17:31:47.690Z,75.70
2022-11-16T17:34:14.894Z,76.90
2022-11-16T17:36:42.760Z,69.70
2022-11-16T17:39:09.907Z,75.43
2022-11-16T17:41:37.377Z,74.68
2022-11-16T17:44:04.934Z,79.10
2022-11-16T17:46:31.990Z,83.72
2022-11-16T17:48:59.202Z,81.22
2022-11-16T17:51:27.911Z,81.75
2022-11-16T17:53:54.899Z,84.80
2022-11-16T17:56:26.116Z,86.15
2022-11-16T17:58:55.133Z,80.47
2022-11-16T18:01:22.980Z,80.00
2022-11-16T18:03:50.142Z,82.78
2022-11-16T18:06:19.443Z,84.53
2022-11-16T18:08:46.654Z,91.80
2022-11-16T18:11:18.810Z,89.07
2022-11-16T18:13:47.343Z,92.00
2022-11-16T18:16:19.694Z,95.95
2022-11-16T18:18:48.346Z,106.72
2022-11-16T18:21:20.740Z,116.00
2022-11-16T18:23:48.527Z,110.35
2022-11-16T18:26:18.867Z,108.43
2022-11-16T18:28:46.619Z,111.82
2022-11-16T18:31:17.068Z,103.55
2022-11-16T18:33:44.153Z,97.80
2022-11-16T18:36:12.478Z,103.57
2022-11-16T18:38:39.554Z,94.75
2022-11-16T18:41:12.242Z,96.00
2022-11-16T18:43:40.865Z,89.03
2022-11-16T18:46:08.126Z,91.50
2022-11-16T18:48:35.179Z,86.88
2022-11-16T18:51:04.632Z,89.13
2022-11-16T18:53:32.810Z,90.63
2022-11-16T18:56:00.059Z,86.18
2022-11-16T19:01:17.778Z,94.45
2022-11-16T19:03:44.770Z,85.90
2022-11-16T19:06:11.841Z,92.32
2022-11-16T19:08:40.470Z,99.15
2022-11-16T19:11:11.766Z,83.50
2022-11-16T19:13:41.035Z,84.35
2022-11-16T19:16:09.445Z,89.68
2022-11-16T19:18:37.668Z,96.77
2022-11-16T19:21:05.756Z,91.47
2022-11-16T19:23:37.820Z,92.82
2022-11-16T19:26:05.448Z,94.93
2022-11-16T19:28:37.079Z,84.88
2022-11-16T19:31:15.307Z,89.43
2022-11-16T19:33:43.055Z,89.13
2022-11-16T19:36:15.842Z,83.00
2022-11-16T19:38:44.470Z,84.68
2022-11-16T19:41:12.608Z,87.53
2022-11-16T19:43:39.654Z,87.88
2022-11-16T19:46:11.999Z,80.00
2022-11-16T19:48:39.276Z,89.10
2022-11-16T19:51:15.032Z,88.55
2022-11-16T19:53:42.572Z,90.13
2022-11-16T19:56:14.868Z,93.35
2022-11-16T19:58:42.759Z,91.18
2022-11-16T20:01:15.860Z,85.40
2022-11-16T20:03:43.661Z,85.28
2022-11-16T20:06:15.260Z,86.63
2022-11-16T20:08:46.341Z,90.93
2022-11-16T20:11:15.511Z,84.18
2022-11-16T20:13:42.833Z,92.43
2022-11-16T20:16:12.387Z,102.18
2022-11-16T20:21:08.896Z,91.85
2022-11-16T20:23:36.337Z,88.72
2022-11-16T20:26:09.523Z,90.45
2022-11-16T20:28:41.803Z,94.93
2022-11-16T20:31:15.271Z,93.90
2022-11-16T20:33:43.124Z,84.78
2022-11-16T20:36:11.780Z,102.63
2022-11-16T20:38:39.569Z,90.63
2022-11-16T20:41:14.170Z,89.05
2022-11-16T20:43:42.242Z,94.65
2022-11-16T20:46:11.121Z,87.10
2022-11-16T20:48:39.815Z,93.55
2022-11-16T20:51:08.037Z,97.20
2022-11-16T20:53:35.621Z,92.15
2022-11-16T20:56:04.244Z,95.80
2022-11-16T20:58:32.298Z,98.90
2022-11-16T21:01:01.016Z,87.68
2022-11-16T21:03:28.679Z,87.15
2022-11-16T21:05:55.887Z,98.65
2022-11-16T21:08:24.946Z,92.18
2022-11-16T21:10:52.162Z,89.10
2022-11-16T21:13:39.092Z,87.97
2022-11-16T21:16:11.507Z,92.68
2022-11-16T21:18:41.714Z,88.80
2022-11-16T21:21:12.448Z,100.18
2022-11-16T21:23:43.286Z,111.25
2022-11-16T21:26:15.290Z,106.43
2022-11-16T21:28:45.332Z,102.40
2022-11-16T21:31:18.094Z,87.45
2022-11-16T21:33:45.966Z,83.93
2022-11-16T21:36:16.019Z,83.35
2022-11-16T21:38:43.508Z,76.88
2022-11-16T21:41:15.617Z,83.10
2022-11-16T21:43:42.602Z,75.55
2022-11-16T21:46:18.015Z,81.43
2022-11-16T21:48:46.949Z,99.60
2022-11-16T21:51:18.859Z,84.15
2022-11-16T21:53:46.449Z,74.05
2022-11-16T21:56:18.099Z,78.47
2022-11-16T21:58:46.125Z,74.15
2022-11-16T22:01:15.664Z,76.65
2022-11-16T22:06:31.994Z,80.15
2022-11-16T22:08:59.239Z,81.65
2022-11-16T22:11:26.103Z,81.40
2022-11-16T22:13:53.064Z,73.28
2022-11-16T22:16:23.367Z,69.70
2022-11-16T22:18:50.839Z,90.40
2022-11-16T22:21:18.032Z,75.82
2022-11-16T22:23:45.069Z,79.03
2022-11-16T22:26:13.554Z,77.85
2022-11-16T22:28:40.758Z,69.60
2022-11-16T22:31:15.181Z,76.07
2022-11-16T22:33:42.401Z,75.53
2022-11-16T22:36:10.114Z,78.00
2022-11-16T22:38:37.085Z,69.93
2022-11-16T22:41:04.632Z,76.03
2022-11-16T22:43:32.605Z,65.03
2022-11-16T22:46:01.995Z,73.35
2022-11-16T22:48:33.480Z,64.20
2022-11-16T22:51:21.531Z,67.47
2022-11-16T22:53:52.914Z,69.20
2022-11-16T22:56:20.252Z,64.95
2022-11-16T22:58:47.180Z,72.38
2022-11-16T23:01:14.264Z,74.07
2022-11-16T23:03:41.324Z,67.47
2022-11-16T23:06:08.979Z,69.22
2022-11-16T23:08:36.734Z,70.57
2022-11-16T23:11:36.003Z,72.15
2022-11-16T23:14:23.420Z,67.07
2022-11-16T23:16:50.867Z,66.22
2022-11-16T23:19:38.154Z,64.45
2022-11-16T23:22:23.739Z,67.57
2022-11-16T23:25:09.464Z,64.18
2022-11-16T23:27:44.947Z,57.38
2022-11-16T23:30:13.455Z,58.35
2022-11-16T23:32:41.785Z,54.78
2022-11-16T23:35:09.808Z,64.10
2022-11-16T23:37:53.998Z,63.55
2022-11-16T23:40:22.955Z,57.47
2022-11-16T23:43:08.568Z,54.60
2022-11-16T23:45:35.930Z,60.65
2022-11-16T23:48:02.802Z,63.10
2022-11-16T23:50:29.929Z,71.28
2022-11-16T23:52:56.918Z,65.40
2022-11-16T23:55:24.271Z,67.85
2022-11-16T23:57:51.407Z,63.22
